createdAt,value
2023-04-29T00:00:11.176Z,4.07
2023-04-29T00:04:13.327Z,4.07
2023-04-29T00:10:17.048Z,4.07
2023-04-29T00:14:20.632Z,4.07
2023-04-29T00:16:21.993Z,4.07
2023-04-29T00:20:25.005Z,4.07
2023-04-29T00:26:28.324Z,4.07
2023-04-29T00:32:31.590Z,4.06
2023-04-29T00:36:33.783Z,4.07
2023-04-29T00:42:38.243Z,4.06
2023-04-29T00:46:40.892Z,4.06
2023-04-29T00:48:42.315Z,4.06
2023-04-29T00:52:44.877Z,4.06
2023-04-29T00:58:48.764Z,4.06
2023-04-29T01:04:52.296Z,4.06
2023-04-29T01:08:54.926Z,4.06
2023-04-29T01:15:00.127Z,4.06
2023-04-29T01:19:02.788Z,4.06
2023-04-29T01:21:04.566Z,4.06
2023-04-29T01:25:06.620Z,4.06
2023-04-29T01:29:09.873Z,4.06
2023-04-29T01:31:11.111Z,4.06
2023-04-29T01:35:13.964Z,4.06
2023-04-29T01:41:18.582Z,4.06
2023-04-29T01:47:22.884Z,4.06
2023-04-29T01:51:26.182Z,4.06
2023-04-29T01:57:30.425Z,4.06
2023-04-29T02:01:32.897Z,4.06
2023-04-29T02:03:34.686Z,4.05
2023-04-29T02:07:37.653Z,4.05
2023-04-29T02:11:40.505Z,4.05
2023-04-29T02:13:42.396Z,4.05
2023-04-29T02:17:46.137Z,4.05
2023-04-29T02:23:51.115Z,4.05
2023-04-29T02:29:54.709Z,4.05
2023-04-29T02:33:57.768Z,4.05
2023-04-29T02:40:01.600Z,4.05
2023-04-29T02:44:04.600Z,4.05
2023-04-29T02:46:05.962Z,4.05
2023-04-29T02:50:08.682Z,4.05
2023-04-29T02:54:10.861Z,4.05
2023-04-29T02:56:12.602Z,4.05
2023-04-29T03:00:15.383Z,4.05
2023-04-29T03:06:20.037Z,4.04
2023-04-29T03:10:23.003Z,4.04
2023-04-29T03:12:23.983Z,4.04
2023-04-29T03:16:26.388Z,4.04
2023-04-29T03:22:30.927Z,4.04
2023-04-29T03:28:34.856Z,4.04
2023-04-29T03:32:37.456Z,4.04
2023-04-29T03:37:23.786Z,4.04
2023-04-29T03:39:25.288Z,4.04
2023-04-29T03:43:28.692Z,4.04
2023-04-29T03:47:31.391Z,4.04
2023-04-29T03:49:32.970Z,4.04
2023-04-29T03:53:36.416Z,4.04
2023-04-29T03:59:41.272Z,4.04
2023-04-29T04:05:44.503Z,4.04
2023-04-29T04:09:47.041Z,4.04
2023-04-29T04:13:59.065Z,4.04
2023-04-29T04:15:50.754Z,4.04
2023-04-29T04:19:53.498Z,4.04
2023-04-29T04:21:54.712Z,4.04
2023-04-29T04:25:58.532Z,4.04
2023-04-29T04:30:01.255Z,4.04
2023-04-29T04:32:02.307Z,4.04
2023-04-29T04:36:08.984Z,4.03
2023-04-29T04:42:09.256Z,4.04
2023-04-29T04:48:13.608Z,4.03
2023-04-29T04:52:16.847Z,4.03
2023-04-29T04:58:21.049Z,4.03
2023-04-29T05:02:23.673Z,4.03
2023-04-29T05:04:25.261Z,4.03
2023-04-29T05:08:28.340Z,4.03
2023-04-29T05:12:30.813Z,4.03
2023-04-29T05:14:31.896Z,4.03
2023-04-29T05:18:35.087Z,4.03
2023-04-29T05:22:38.044Z,4.03
2023-04-29T05:24:39.221Z,4.03
2023-04-29T05:28:42.123Z,4.03
2023-04-29T05:30:43.737Z,4.02
2023-04-29T05:32:45.170Z,4.03
2023-04-29T05:34:46.693Z,4.02
2023-04-29T05:40:50.591Z,4.02
2023-04-29T05:42:52.225Z,4.02
2023-04-29T05:46:54.761Z,4.02
2023-04-29T05:50:57.890Z,4.02
2023-04-29T05:57:03.145Z,4.02
2023-04-29T06:01:05.597Z,4.02
2023-04-29T06:03:07.427Z,4.02
2023-04-29T06:07:10.508Z,4.03
2023-04-29T06:11:13.517Z,4.03
2023-04-29T06:13:14.527Z,4.03
2023-04-29T06:17:17.540Z,4.03
2023-04-29T06:23:21.535Z,4.03
2023-04-29T06:29:26.542Z,4.04
2023-04-29T06:33:29.582Z,4.04
2023-04-29T06:39:33.184Z,4.04
2023-04-29T06:43:35.302Z,4.04
2023-04-29T06:45:36.194Z,4.04
2023-04-29T06:49:38.825Z,4.04
2023-04-29T06:53:41.927Z,4.04
2023-04-29T06:55:43.530Z,4.04
2023-04-29T06:59:46.244Z,4.04
2023-04-29T07:05:49.931Z,4.04
2023-04-29T07:11:53.085Z,4.05
2023-04-29T07:15:56.390Z,4.05
2023-04-29T07:22:01.209Z,4.06
2023-04-29T07:26:03.144Z,4.06
2023-04-29T07:28:04.326Z,4.06
2023-04-29T07:32:07.440Z,4.07
2023-04-29T07:36:10.856Z,4.07
2023-04-29T07:38:12.052Z,4.06
2023-04-29T07:42:15.138Z,4.07
2023-04-29T07:46:17.781Z,4.07
2023-04-29T07:48:18.660Z,4.07
2023-04-29T07:52:21.048Z,4.08
2023-04-29T07:54:22.428Z,4.09
2023-04-29T07:56:23.279Z,4.09
2023-04-29T07:58:24.332Z,4.1
2023-04-29T08:04:28.365Z,4.1
2023-04-29T08:06:29.765Z,4.1
2023-04-29T08:10:32.599Z,4.1
2023-04-29T08:14:34.661Z,4.1
2023-04-29T08:20:38.683Z,4.12
2023-04-29T08:24:42.118Z,4.14
2023-04-29T08:26:43.629Z,4.14
2023-04-29T08:30:45.771Z,4.14
2023-04-29T08:34:48.229Z,4.15
2023-04-29T08:36:49.444Z,4.15
2023-04-29T08:40:52.245Z,4.16
2023-04-29T08:46:56.099Z,4.16
2023-04-29T08:53:00.414Z,4.18
2023-04-29T08:57:03.065Z,4.17
2023-04-29T09:03:07.997Z,4.18
2023-04-29T09:05:09.030Z,4.19
2023-04-29T09:09:11.213Z,4.19
2023-04-29T09:13:13.966Z,4.18
2023-04-29T09:17:16.913Z,4.17
2023-04-29T09:19:18.667Z,4.19
2023-04-29T09:23:22.203Z,4.19
2023-04-29T09:29:26.182Z,4.19
2023-04-29T09:33:28.331Z,4.19
2023-04-29T09:35:29.337Z,4.19
2023-04-29T09:39:32.451Z,4.19
2023-04-29T09:45:35.568Z,4.2
2023-04-29T09:51:38.992Z,4.2
2023-04-29T09:55:41.744Z,4.2
2023-04-29T10:01:45.875Z,4.2
2023-04-29T10:05:49.170Z,4.2
2023-04-29T10:11:53.791Z,4.2
2023-04-29T10:15:55.717Z,4.2
2023-04-29T10:17:56.560Z,4.2
2023-04-29T10:21:58.837Z,4.21
2023-04-29T10:22:42.558Z,4.2
2023-04-29T10:28:46.741Z,4.19
2023-04-29T10:32:51.889Z,4.18
2023-04-29T10:38:54.159Z,4.19
2023-04-29T10:42:56.246Z,4.19
2023-04-29T10:44:57.272Z,4.19
2023-04-29T10:48:59.998Z,4.18
2023-04-29T10:53:03.110Z,4.18
2023-04-29T10:55:04.714Z,4.18
2023-04-29T10:59:07.135Z,4.18
2023-04-29T11:05:10.560Z,4.18
2023-04-29T11:09:13.003Z,4.18
2023-04-29T11:11:14.318Z,4.18
2023-04-29T11:15:17.156Z,4.18
2023-04-29T11:21:21.481Z,4.18
2023-04-29T11:27:25.487Z,4.17
2023-04-29T11:31:28.841Z,4.17
2023-04-29T11:37:30.885Z,4.17
2023-04-29T11:41:33.006Z,4.17
2023-04-29T11:43:34.275Z,4.17
2023-04-29T11:47:37.451Z,4.17
2023-04-29T11:51:40.368Z,4.17
2023-04-29T11:53:41.571Z,4.17
2023-04-29T11:57:44.316Z,4.17
2023-04-29T12:03:48.238Z,4.17
2023-04-29T12:09:53.489Z,4.17
2023-04-29T12:13:56.472Z,4.17
2023-04-29T12:20:00.265Z,4.17
2023-04-29T12:24:03.168Z,4.17
2023-04-29T12:26:04.660Z,4.17
2023-04-29T12:30:06.950Z,4.16
2023-04-29T12:34:10.441Z,4.16
2023-04-29T12:36:11.333Z,4.17
2023-04-29T12:40:14.197Z,4.16
2023-04-29T12:46:17.722Z,4.17
2023-04-29T12:52:21.422Z,4.16
2023-04-29T12:56:24.039Z,4.16
2023-04-29T13:02:27.932Z,4.16
2023-04-29T13:08:32.068Z,4.16
2023-04-29T13:12:34.684Z,4.16
2023-04-29T13:16:37.637Z,4.16
2023-04-29T13:18:39.259Z,4.16
2023-04-29T13:22:41.017Z,4.16
2023-04-29T13:26:43.015Z,4.16
2023-04-29T13:28:44.029Z,4.16
2023-04-29T13:32:53.690Z,4.16
2023-04-29T13:34:48.195Z,4.16
2023-04-29T13:38:54.995Z,4.15
2023-04-29T13:44:55.221Z,4.16
2023-04-29T13:55:39.282Z,4.15
2023-04-29T14:05:08.937Z,4.15
2023-04-29T14:07:10.643Z,4.15
2023-04-29T14:11:13.642Z,4.15
2023-04-29T14:15:16.602Z,4.15
2023-04-29T14:17:17.645Z,4.15
2023-04-29T14:21:21.056Z,4.15
2023-04-29T14:25:23.601Z,4.15
2023-04-29T14:27:24.557Z,4.15
2023-04-29T14:33:28.525Z,4.14
2023-04-29T14:37:30.692Z,4.14
2023-04-29T14:43:34.720Z,4.14
2023-04-29T14:47:37.376Z,4.15
2023-04-29T14:49:38.397Z,4.14
2023-04-29T14:53:41.359Z,4.14
2023-04-29T14:57:43.308Z,4.14
2023-04-29T14:59:45.172Z,4.14
2023-04-29T15:03:47.967Z,4.14
2023-04-29T15:07:49.953Z,4.14
2023-04-29T15:09:51.726Z,4.14
2023-04-29T15:13:54.917Z,4.14
2023-04-29T15:15:56.469Z,4.14
2023-04-29T15:20:00.469Z,4.14
2023-04-29T15:26:04.340Z,4.14
2023-04-29T15:32:09.056Z,4.14
2023-04-29T15:36:11.564Z,4.14
2023-04-29T15:40:14.315Z,4.14
2023-04-29T15:42:16.060Z,4.14
2023-04-29T15:46:19.448Z,4.13
2023-04-29T15:50:22.206Z,4.14
2023-04-29T15:52:23.981Z,4.14
2023-04-29T15:56:26.600Z,4.13
2023-04-29T15:58:27.663Z,4.13
2023-04-29T16:00:29.303Z,4.14
2023-04-29T16:02:30.658Z,4.13
2023-04-29T16:08:35.167Z,4.13
2023-04-29T16:10:36.591Z,4.13
2023-04-29T16:14:39.338Z,4.13
2023-04-29T16:18:41.873Z,4.13
2023-04-29T16:24:48.764Z,4.13
2023-04-29T16:28:49.398Z,4.13
2023-04-29T16:30:50.393Z,4.13
2023-04-29T16:34:53.284Z,4.12
2023-04-29T16:38:55.703Z,4.12
2023-04-29T16:40:57.245Z,4.12
2023-04-29T16:44:59.629Z,4.12
2023-04-29T16:51:03.990Z,4.12
2023-04-29T16:57:07.244Z,4.12
2023-04-29T17:01:09.693Z,4.12
2023-04-29T17:07:13.362Z,4.12
2023-04-29T17:07:57.133Z,4.12
2023-04-29T17:12:00.730Z,4.12
2023-04-29T17:16:02.947Z,4.12
2023-04-29T17:18:04.211Z,4.12
2023-04-29T17:22:06.817Z,4.12
2023-04-29T17:26:08.695Z,4.12
2023-04-29T17:28:10.464Z,4.12
2023-04-29T17:32:13.401Z,4.12
2023-04-29T17:34:15.050Z,4.12
2023-04-29T17:38:17.973Z,4.12
2023-04-29T17:44:23.533Z,4.11
2023-04-29T17:50:25.624Z,4.12
2023-04-29T17:54:27.719Z,4.11
2023-04-29T18:00:32.001Z,4.12
2023-04-29T18:04:34.855Z,4.11
2023-04-29T18:06:36.037Z,4.11
2023-04-29T18:10:38.631Z,4.11
2023-04-29T18:14:40.785Z,4.11
2023-04-29T18:16:42.250Z,4.11
2023-04-29T18:20:44.959Z,4.11
2023-04-29T18:26:48.948Z,4.11
2023-04-29T18:32:52.244Z,4.11
2023-04-29T18:36:54.984Z,4.11
2023-04-29T18:42:59.335Z,4.11
2023-04-29T18:47:01.582Z,4.11
2023-04-29T18:49:02.775Z,4.1
2023-04-29T18:53:05.690Z,4.11
2023-04-29T18:59:10.351Z,4.11
2023-04-29T19:03:13.647Z,4.1
2023-04-29T19:05:15.095Z,4.1
2023-04-29T19:09:18.137Z,4.1
2023-04-29T19:15:22.445Z,4.1
2023-04-29T19:19:24.913Z,4.1
2023-04-29T19:21:25.863Z,4.1
2023-04-29T19:25:29.255Z,4.1
2023-04-29T19:29:31.788Z,4.1
2023-04-29T19:31:33.593Z,4.1
2023-04-29T19:35:35.815Z,4.1
2023-04-29T19:41:40.325Z,4.1
2023-04-29T19:47:45.413Z,4.1
2023-04-29T19:51:47.980Z,4.09
2023-04-29T19:57:52.400Z,4.1
2023-04-29T20:01:55.648Z,4.1
2023-04-29T20:03:56.626Z,4.09
2023-04-29T20:07:58.576Z,4.1
2023-04-29T20:12:01.503Z,4.09
2023-04-29T20:14:02.544Z,4.09
2023-04-29T20:18:05.605Z,4.09
2023-04-29T20:22:08.546Z,4.09
2023-04-29T20:24:10.325Z,4.09
2023-04-29T20:28:12.771Z,4.09
2023-04-29T20:30:14.119Z,4.09
2023-04-29T20:32:15.344Z,4.09
2023-04-29T20:34:16.294Z,4.09
2023-04-29T20:40:20.281Z,4.09
2023-04-29T20:42:21.361Z,4.09
2023-04-29T20:46:25.325Z,4.09
2023-04-29T20:50:26.474Z,4.09
2023-04-29T20:56:30.785Z,4.08
2023-04-29T21:00:33.119Z,4.08
2023-04-29T21:02:34.112Z,4.08
2023-04-29T21:06:37.103Z,4.08
2023-04-29T21:10:40.434Z,4.08
2023-04-29T21:12:41.638Z,4.08
2023-04-29T21:16:44.217Z,4.08
2023-04-29T21:22:48.421Z,4.08
2023-04-29T21:28:52.776Z,4.08
2023-04-29T21:32:55.585Z,4.08
2023-04-29T21:38:59.875Z,4.08
2023-04-29T21:43:02.466Z,4.08
2023-04-29T21:45:03.853Z,4.08
2023-04-29T21:49:05.971Z,4.08
2023-04-29T21:53:09.352Z,4.08
2023-04-29T21:55:11.057Z,4.08
2023-04-29T21:59:14.593Z,4.08
2023-04-29T22:05:19.139Z,4.08
2023-04-29T22:11:22.873Z,4.08
2023-04-29T22:15:29.020Z,4.08
2023-04-29T22:21:30.158Z,4.07
2023-04-29T22:27:33.920Z,4.07
2023-04-29T22:31:37.274Z,4.07
2023-04-29T22:35:40.586Z,4.07
2023-04-29T22:37:42.021Z,4.07
2023-04-29T22:41:45.175Z,4.07
2023-04-29T22:45:47.951Z,4.07
2023-04-29T22:47:49.083Z,4.07
2023-04-29T22:51:51.440Z,4.07
2023-04-29T22:53:52.652Z,4.07
2023-04-29T22:55:54.368Z,4.07
2023-04-29T22:57:56.090Z,4.07
2023-04-29T23:04:00.773Z,4.07
2023-04-29T23:06:02.372Z,4.07
2023-04-29T23:10:04.316Z,4.07
2023-04-29T23:14:07.193Z,4.06
2023-04-29T23:20:11.305Z,4.06
2023-04-29T23:24:14.156Z,4.06
2023-04-29T23:26:15.554Z,4.06
2023-04-29T23:30:18.078Z,4.06
2023-04-29T23:34:21.016Z,4.06
2023-04-29T23:36:22.337Z,4.06
2023-04-29T23:40:25.238Z,4.06
2023-04-29T23:46:30.238Z,4.06
2023-04-29T23:52:33.546Z,4.06
2023-04-29T23:53:17.417Z,4.06
2023-04-29T23:57:20.013Z,4.06
